createdAt,value
2017-12-29T00:01:28.122Z,95988.94
2017-12-29T00:03:04.772Z,96016.39
2017-12-29T00:04:42.276Z,95917.25
2017-12-29T00:06:20.630Z,95977.61
2017-12-29T00:07:57.210Z,95944.47
2017-12-29T00:09:33.653Z,95904.41
2017-12-29T00:11:10.278Z,95912.59
2017-12-29T00:12:46.940Z,96047.97
2017-12-29T00:14:23.350Z,95880.23
2017-12-29T00:16:00.582Z,95940.57
2017-12-29T00:17:37.434Z,96006.55
2017-12-29T00:19:13.969Z,96026.75
2017-12-29T00:20:50.901Z,96014.73
2017-12-29T00:22:27.427Z,96110.89
2017-12-29T00:24:04.618Z,95990.59
2017-12-29T00:25:41.062Z,95837.03
2017-12-29T00:27:17.453Z,95717.83
2017-12-29T00:28:54.802Z,95567.31
2017-12-29T00:30:32.353Z,95708.39
2017-12-29T00:32:33.547Z,95724.73
2017-12-29T00:34:11.100Z,95825.50
2017-12-29T00:35:49.428Z,95733.28
2017-12-29T00:37:26.340Z,95844.03
2017-12-29T00:39:02.731Z,95780.75
2017-12-29T00:40:39.215Z,95725.15
2017-12-29T00:42:16.850Z,95678.64
2017-12-29T00:43:53.196Z,95768.66
2017-12-29T00:45:30.526Z,95865.89
2017-12-29T00:47:07.888Z,95997.89
2017-12-29T00:48:49.028Z,95945.74
2017-12-29T00:50:25.842Z,95850.89
2017-12-29T00:52:02.170Z,95984.09
2017-12-29T00:53:38.555Z,96102.31
2017-12-29T00:55:15.503Z,96129.58
2017-12-29T00:56:54.561Z,96064.74
2017-12-29T00:58:31.013Z,95981.98
2017-12-29T01:00:09.277Z,96100.19
2017-12-29T01:01:45.826Z,96107.45
2017-12-29T01:03:22.525Z,95978.08
2017-12-29T01:05:02.099Z,95848.73
2017-12-29T01:06:39.033Z,95936.68
2017-12-29T01:08:15.893Z,96101.50
2017-12-29T01:09:52.354Z,96119.17
2017-12-29T01:11:29.610Z,95989.74
2017-12-29T01:13:06.007Z,96005.66
2017-12-29T01:14:42.606Z,95994.91
2017-12-29T01:16:19.819Z,96058.28
2017-12-29T01:17:56.220Z,96136.41
2017-12-29T01:19:33.357Z,96056.54
2017-12-29T01:21:09.930Z,96008.24
2017-12-29T01:22:46.909Z,96108.30
2017-12-29T01:24:23.403Z,96131.66
2017-12-29T01:26:00.535Z,96137.69
2017-12-29T01:27:37.378Z,96022.00
2017-12-29T01:29:13.734Z,96123.92
2017-12-29T01:30:50.099Z,96177.78
2017-12-29T01:32:26.677Z,96202.38
2017-12-29T01:34:04.986Z,96191.63
2017-12-29T01:35:41.248Z,96192.95
2017-12-29T01:37:18.411Z,96246.03
2017-12-29T01:38:54.866Z,95974.98
2017-12-29T01:40:32.629Z,95783.28
2017-12-29T01:42:08.926Z,95711.81
2017-12-29T01:43:46.130Z,95829.40
2017-12-29T01:45:23.235Z,95932.36
2017-12-29T01:46:59.932Z,95927.64
2017-12-29T01:48:36.302Z,95984.99
2017-12-29T01:50:12.718Z,96048.31
2017-12-29T01:51:49.202Z,96016.82
2017-12-29T01:53:25.853Z,95940.57
2017-12-29T01:55:03.098Z,95944.94
2017-12-29T01:56:39.502Z,95955.25
2017-12-29T01:58:15.899Z,95883.53
2017-12-29T01:59:53.331Z,95920.78
2017-12-29T02:01:29.652Z,96031.16
2017-12-29T02:03:06.026Z,95997.89
2017-12-29T02:04:42.492Z,96082.09
2017-12-29T02:06:19.512Z,96184.28
2017-12-29T02:07:55.867Z,96225.42
2017-12-29T02:09:33.233Z,96149.88
2017-12-29T02:11:09.624Z,96163.22
2017-12-29T02:12:46.473Z,96039.82
2017-12-29T02:14:23.591Z,95926.80
2017-12-29T02:16:00.044Z,95819.39
2017-12-29T02:17:36.379Z,95903.09
2017-12-29T02:19:13.163Z,95949.22
2017-12-29T02:20:49.588Z,96036.30
2017-12-29T02:22:25.999Z,96038.45
2017-12-29T02:24:02.379Z,96100.57
2017-12-29T02:25:39.968Z,96143.30
2017-12-29T02:27:16.282Z,96189.47
2017-12-29T02:28:52.781Z,96235.15
2017-12-29T02:30:29.162Z,96158.38
2017-12-29T02:32:06.698Z,96216.70
2017-12-29T02:33:43.052Z,96277.61
2017-12-29T02:35:19.521Z,96244.70
2017-12-29T02:36:57.219Z,96239.95
2017-12-29T02:38:33.991Z,96302.17
2017-12-29T02:40:10.400Z,96272.38
2017-12-29T02:41:46.759Z,96364.52
2017-12-29T02:43:23.509Z,96368.81
2017-12-29T02:45:00.157Z,96399.45
2017-12-29T02:46:36.702Z,96399.83
2017-12-29T02:48:12.951Z,96412.45
2017-12-29T02:49:50.967Z,96378.69
2017-12-29T02:51:27.693Z,96404.25
2017-12-29T02:53:04.081Z,96409.39
2017-12-29T02:54:40.481Z,96394.29
2017-12-29T02:56:16.837Z,96393.44
2017-12-29T02:57:53.242Z,96351.84
2017-12-29T02:59:29.748Z,96298.82
2017-12-29T03:01:06.116Z,96265.03
2017-12-29T03:02:43.205Z,96220.58
2017-12-29T03:04:19.468Z,96180.38
2017-12-29T03:05:56.659Z,96184.66
2017-12-29T03:07:33.809Z,96172.56
2017-12-29T03:09:10.363Z,96164.48
2017-12-29T03:10:46.682Z,96170.52
2017-12-29T03:12:23.834Z,96083.72
2017-12-29T03:14:00.920Z,96056.54
2017-12-29T03:15:37.511Z,96069.88
2017-12-29T03:17:13.967Z,96018.14
2017-12-29T03:18:50.333Z,95941.42
2017-12-29T03:20:26.649Z,95894.34
2017-12-29T03:22:03.436Z,95857.20
2017-12-29T03:23:39.877Z,95826.77
2017-12-29T03:25:16.167Z,95878.37
2017-12-29T03:26:52.508Z,95879.80
2017-12-29T03:28:29.210Z,95956.10
2017-12-29T03:30:07.174Z,95946.52
2017-12-29T03:31:43.570Z,95901.26
2017-12-29T03:33:19.985Z,95836.61
2017-12-29T03:34:56.648Z,95809.94
2017-12-29T03:36:33.161Z,95716.98
2017-12-29T03:38:09.471Z,95754.44
2017-12-29T03:39:45.817Z,95821.17
2017-12-29T03:41:22.386Z,95827.57
2017-12-29T03:42:58.625Z,95783.75
2017-12-29T03:44:34.972Z,95841.87
2017-12-29T03:46:11.318Z,95831.98
2017-12-29T03:47:48.008Z,95748.87
2017-12-29T03:49:24.359Z,95677.47
2017-12-29T03:51:02.991Z,95746.30
2017-12-29T03:52:39.307Z,95794.52
2017-12-29T03:54:16.007Z,95808.30
2017-12-29T03:55:52.454Z,95933.20
2017-12-29T03:57:29.741Z,96076.41
2017-12-29T03:59:06.116Z,96158.84
2017-12-29T04:00:43.660Z,96161.01
2017-12-29T04:02:20.871Z,96219.59
2017-12-29T04:03:57.197Z,96246.41
2017-12-29T04:05:34.721Z,96273.27
2017-12-29T04:07:11.511Z,96277.56
2017-12-29T04:08:47.858Z,96248.66
2017-12-29T04:10:24.166Z,96244.80
2017-12-29T04:12:00.565Z,96187.39
2017-12-29T04:13:36.851Z,96156.72
2017-12-29T04:15:15.389Z,96224.06
2017-12-29T04:16:51.694Z,96224.53
2017-12-29T04:18:28.904Z,96215.05
2017-12-29T04:20:05.703Z,96236.08
2017-12-29T04:21:42.133Z,96193.84
2017-12-29T04:23:18.471Z,96212.87
2017-12-29T04:24:55.610Z,96176.56
2017-12-29T04:26:33.014Z,96069.11
2017-12-29T04:28:10.082Z,95956.10
2017-12-29T04:29:46.464Z,95894.02
2017-12-29T04:31:22.802Z,95843.61
2017-12-29T04:32:59.692Z,95949.22
2017-12-29T04:34:36.850Z,96090.73
2017-12-29T04:36:13.146Z,96189.55
2017-12-29T04:37:49.509Z,96190.36
2017-12-29T04:39:26.367Z,96218.83
2017-12-29T04:41:02.759Z,96250.78
2017-12-29T04:42:39.130Z,96197.80
2017-12-29T04:44:16.500Z,96086.78
2017-12-29T04:45:55.086Z,96123.55
2017-12-29T04:47:31.448Z,96169.63
2017-12-29T04:49:07.973Z,96243.39
2017-12-29T04:50:45.248Z,96297.41
2017-12-29T04:52:21.897Z,96299.16
2017-12-29T04:53:58.314Z,96249.47
2017-12-29T04:55:34.596Z,96211.14
2017-12-29T04:57:12.423Z,96171.88
2017-12-29T04:58:48.787Z,96126.05
2017-12-29T05:00:26.006Z,95881.97
2017-12-29T05:02:02.346Z,95657.17
2017-12-29T05:03:38.788Z,95624.55
2017-12-29T05:05:15.468Z,95647.70
2017-12-29T05:06:51.894Z,95780.33
2017-12-29T05:08:28.255Z,95897.07
2017-12-29T05:10:04.724Z,95979.73
2017-12-29T05:11:42.331Z,95851.36
2017-12-29T05:13:19.056Z,95666.58
2017-12-29T05:14:55.762Z,95624.50
2017-12-29T05:16:38.077Z,95489.84
2017-12-29T05:18:14.865Z,95507.61
2017-12-29T05:19:51.466Z,95480.03
2017-12-29T05:21:28.027Z,95383.33
2017-12-29T05:23:04.554Z,95424.50
2017-12-29T05:24:41.580Z,95445.23
2017-12-29T05:26:18.160Z,95458.45
2017-12-29T05:27:54.796Z,95623.56
2017-12-29T05:29:31.455Z,95768.49
2017-12-29T05:31:08.624Z,95837.41
2017-12-29T05:32:45.770Z,95833.08
2017-12-29T05:34:22.367Z,95830.88
2017-12-29T05:35:58.948Z,95836.94
2017-12-29T05:37:35.890Z,95827.48
2017-12-29T05:39:13.730Z,95811.13
2017-12-29T05:40:50.351Z,95798.62
2017-12-29T05:42:27.286Z,95803.36
2017-12-29T05:44:05.068Z,95805.19
2017-12-29T05:45:42.494Z,95812.52
2017-12-29T05:47:20.612Z,95836.94
2017-12-29T05:48:57.258Z,95843.84
2017-12-29T05:50:35.639Z,95830.58
2017-12-29T05:52:12.140Z,95843.42
2017-12-29T05:53:48.718Z,95834.78
2017-12-29T05:55:25.393Z,95778.41
2017-12-29T05:57:03.051Z,95760.83
2017-12-29T05:58:40.137Z,95774.55
2017-12-29T06:02:05.603Z,95741.84
2017-12-29T06:03:42.469Z,95680.25
2017-12-29T06:05:19.107Z,95586.56
2017-12-29T06:06:56.381Z,95656.70
2017-12-29T06:08:33.789Z,95766.41
2017-12-29T06:10:10.920Z,95815.83
2017-12-29T06:11:47.500Z,95843.00
2017-12-29T06:13:24.158Z,95857.16
2017-12-29T06:15:00.744Z,95833.88
2017-12-29T06:16:42.539Z,95843.00
2017-12-29T06:18:19.809Z,95849.53
2017-12-29T06:19:56.377Z,95861.58
2017-12-29T06:21:33.803Z,95760.30
2017-12-29T06:23:10.546Z,95612.38
2017-12-29T06:24:48.508Z,95501.47
2017-12-29T06:26:25.146Z,95321.03
2017-12-29T06:28:01.785Z,95253.55
2017-12-29T06:29:39.088Z,95119.73
2017-12-29T06:31:15.627Z,95033.53
2017-12-29T06:32:52.244Z,94972.23
2017-12-29T06:34:28.773Z,95052.44
2017-12-29T06:36:05.866Z,95265.13
2017-12-29T06:37:43.097Z,95420.47
2017-12-29T06:39:19.620Z,95515.97
2017-12-29T06:40:56.483Z,95559.38
2017-12-29T06:42:34.147Z,95587.75
2017-12-29T06:44:10.637Z,95638.50
2017-12-29T06:45:47.897Z,95668.47
2017-12-29T06:47:24.492Z,95700.50
2017-12-29T06:49:02.445Z,95718.11
2017-12-29T06:50:39.023Z,95721.03
2017-12-29T06:52:15.677Z,95753.41
2017-12-29T06:53:52.600Z,95719.77
2017-12-29T06:55:31.020Z,95734.93
2017-12-29T06:57:07.681Z,95741.84
2017-12-29T06:58:44.355Z,95740.94
2017-12-29T07:00:21.998Z,95734.55
2017-12-29T07:01:59.021Z,95756.45
2017-12-29T07:03:36.370Z,95771.13
2017-12-29T07:05:12.889Z,95787.05
2017-12-29T07:06:50.244Z,95815.36
2017-12-29T07:08:27.400Z,95752.52
2017-12-29T07:10:03.986Z,95669.48
2017-12-29T07:11:41.993Z,95565.91
2017-12-29T07:13:19.385Z,95532.36
2017-12-29T07:14:57.149Z,95433.03
2017-12-29T07:16:33.748Z,95241.57
2017-12-29T07:18:11.159Z,95138.13
2017-12-29T07:19:47.689Z,95036.11
2017-12-29T07:21:25.985Z,94963.23
2017-12-29T07:23:02.778Z,94882.84
2017-12-29T07:24:40.179Z,94792.71
2017-12-29T07:26:16.767Z,94766.69
2017-12-29T07:27:53.720Z,94747.97
2017-12-29T07:29:30.436Z,94737.60
2017-12-29T07:31:07.040Z,94780.75
2017-12-29T07:32:44.247Z,94809.81
2017-12-29T07:34:21.193Z,94815.59
2017-12-29T07:35:58.548Z,94788.13
2017-12-29T07:37:35.086Z,94765.72
2017-12-29T07:39:11.769Z,94801.34
2017-12-29T07:40:48.882Z,94754.27
2017-12-29T07:42:28.297Z,94747.03
2017-12-29T07:44:04.896Z,94715.33
2017-12-29T07:45:42.570Z,94729.02
2017-12-29T07:47:19.380Z,94725.61
2017-12-29T07:48:56.893Z,94798.31
2017-12-29T07:50:33.473Z,94872.88
2017-12-29T07:52:10.013Z,95058.66
2017-12-29T07:53:47.647Z,95107.19
2017-12-29T07:55:24.292Z,95232.81
2017-12-29T07:57:00.866Z,95359.38
2017-12-29T07:58:37.459Z,95248.73
2017-12-29T08:00:17.630Z,95293.38
2017-12-29T08:01:54.265Z,95207.98
2017-12-29T08:03:30.830Z,95133.35
2017-12-29T08:05:07.490Z,95040.70
2017-12-29T08:06:44.148Z,94909.20
2017-12-29T08:08:20.735Z,94854.75
2017-12-29T08:09:57.333Z,94845.45
2017-12-29T08:11:34.792Z,94825.73
2017-12-29T08:13:11.755Z,94830.08
2017-12-29T08:14:48.394Z,94856.43
2017-12-29T08:16:29.869Z,95017.02
2017-12-29T08:18:06.614Z,95130.27
2017-12-29T08:19:47.401Z,95024.36
2017-12-29T08:21:24.069Z,95041.91
2017-12-29T08:23:00.645Z,94995.70
2017-12-29T08:24:37.361Z,94915.17
2017-12-29T08:26:16.875Z,94907.42
2017-12-29T08:27:53.433Z,94799.94
2017-12-29T08:29:30.792Z,94742.27
2017-12-29T08:31:08.175Z,94704.49
2017-12-29T08:32:45.257Z,94685.78
2017-12-29T08:34:22.429Z,94776.45
2017-12-29T08:35:59.289Z,94923.32
2017-12-29T08:37:35.958Z,95040.65
2017-12-29T08:39:12.964Z,95188.98
2017-12-29T08:40:49.572Z,95350.84
2017-12-29T08:42:26.285Z,95395.84
2017-12-29T08:44:03.645Z,95503.83
2017-12-29T08:45:40.609Z,95591.03
2017-12-29T08:47:18.805Z,95642.25
2017-12-29T08:48:55.482Z,95616.52
2017-12-29T08:50:32.643Z,95547.33
2017-12-29T08:52:09.416Z,95687.48
2017-12-29T08:53:46.785Z,95595.44
2017-12-29T08:55:23.422Z,95560.61
2017-12-29T08:57:00.807Z,95706.00
2017-12-29T08:58:37.770Z,95702.95
2017-12-29T09:00:21.772Z,95743.78
2017-12-29T09:01:58.479Z,95834.64
2017-12-29T09:03:35.066Z,95800.14
2017-12-29T09:05:11.985Z,95705.11
2017-12-29T09:06:48.640Z,95766.20
2017-12-29T09:08:25.333Z,95835.95
2017-12-29T09:10:02.472Z,95904.43
2017-12-29T09:11:39.391Z,95929.16
2017-12-29T09:13:22.625Z,95860.13
2017-12-29T09:14:59.909Z,95669.70
2017-12-29T09:16:36.506Z,95635.08
2017-12-29T09:18:13.567Z,95818.74
2017-12-29T09:19:50.859Z,95882.55
2017-12-29T09:21:29.330Z,95929.58
2017-12-29T09:23:06.135Z,95991.65
2017-12-29T09:24:43.836Z,95881.53
2017-12-29T09:26:20.496Z,95569.58
2017-12-29T09:27:57.404Z,95525.84
2017-12-29T09:29:34.033Z,95572.63
2017-12-29T09:31:10.998Z,95734.47
2017-12-29T09:32:47.580Z,95853.69
2017-12-29T09:34:25.872Z,95944.73
2017-12-29T09:36:02.482Z,95944.97
2017-12-29T09:37:39.346Z,95937.42
2017-12-29T09:39:15.996Z,95972.21
2017-12-29T09:40:53.488Z,95954.98
2017-12-29T09:42:31.084Z,95911.95
2017-12-29T09:44:08.013Z,95987.70
2017-12-29T09:45:48.087Z,96003.66
2017-12-29T09:47:25.434Z,95945.95
2017-12-29T09:49:02.091Z,96051.11
2017-12-29T09:50:39.216Z,96119.38
2017-12-29T09:52:15.797Z,96166.83
2017-12-29T09:53:52.540Z,96161.72
2017-12-29T09:55:40.529Z,96192.74
2017-12-29T09:57:17.893Z,95920.84
2017-12-29T09:58:54.497Z,95865.34
2017-12-29T10:00:31.166Z,95953.34
2017-12-29T10:02:07.782Z,96030.56
2017-12-29T10:03:44.370Z,96052.42
2017-12-29T10:05:21.750Z,96067.15
2017-12-29T10:06:59.108Z,96124.27
2017-12-29T10:08:35.656Z,96154.80
2017-12-29T10:10:12.510Z,96232.47
2017-12-29T10:11:49.141Z,96218.23
2017-12-29T10:13:26.937Z,96071.88
2017-12-29T10:15:04.605Z,96081.42
2017-12-29T10:16:41.414Z,96129.36
2017-12-29T10:18:18.118Z,96179.11
2017-12-29T10:19:56.293Z,96189.42
2017-12-29T10:21:34.473Z,96288.61
2017-12-29T10:23:11.645Z,96253.17
2017-12-29T10:24:48.292Z,96213.09
2017-12-29T10:26:25.308Z,96189.34
2017-12-29T10:28:06.013Z,96129.83
2017-12-29T10:29:49.416Z,96126.77
2017-12-29T10:31:26.651Z,96141.39
2017-12-29T10:33:03.640Z,96131.95
2017-12-29T10:34:41.776Z,96117.25
2017-12-29T10:36:19.165Z,96119.04
2017-12-29T10:37:56.557Z,96101.67
2017-12-29T10:39:33.609Z,96101.63
2017-12-29T10:41:10.201Z,96132.00
2017-12-29T10:42:47.585Z,96133.27
2017-12-29T10:44:24.248Z,96151.87
2017-12-29T10:46:01.148Z,96169.46
2017-12-29T10:47:37.834Z,96119.81
2017-12-29T10:49:15.092Z,96133.69
2017-12-29T10:50:51.628Z,96150.05
2017-12-29T10:52:28.192Z,96164.70
2017-12-29T10:54:04.851Z,96172.94
2017-12-29T10:55:42.529Z,96198.86
2017-12-29T10:57:19.222Z,96249.00
2017-12-29T10:58:56.116Z,96276.97
2017-12-29T11:00:32.773Z,96252.40
2017-12-29T11:02:09.440Z,96218.28
2017-12-29T11:03:46.098Z,96212.67
2017-12-29T11:05:23.202Z,96223.84
2017-12-29T11:06:59.713Z,96165.59
2017-12-29T11:08:36.326Z,96214.37
2017-12-29T11:10:13.697Z,96189.77
2017-12-29T11:11:52.655Z,96186.36
2017-12-29T11:13:29.220Z,96263.24
2017-12-29T11:15:07.106Z,96331.91
2017-12-29T11:16:43.704Z,96352.23
2017-12-29T11:18:20.778Z,96300.31
2017-12-29T11:19:57.403Z,96354.87
2017-12-29T11:21:34.813Z,96385.62
2017-12-29T11:23:11.427Z,96420.12
2017-12-29T11:24:48.519Z,96428.33
2017-12-29T11:26:25.157Z,96402.89
2017-12-29T11:28:01.773Z,96395.45
2017-12-29T11:29:39.148Z,96371.36
2017-12-29T11:31:16.320Z,96414.58
2017-12-29T11:32:54.185Z,96448.28
2017-12-29T11:34:32.909Z,96462.63
2017-12-29T11:36:09.705Z,96467.82
2017-12-29T11:37:47.165Z,96417.91
2017-12-29T11:39:24.711Z,96316.05
2017-12-29T11:41:01.353Z,96313.41
2017-12-29T11:42:38.893Z,96342.27
2017-12-29T11:44:16.020Z,96389.48
2017-12-29T11:45:53.740Z,96437.94
2017-12-29T11:47:30.365Z,96454.75
2017-12-29T11:49:06.881Z,96482.88
2017-12-29T11:50:44.958Z,96490.63
2017-12-29T11:52:22.621Z,96479.44
2017-12-29T11:53:59.359Z,96536.14
2017-12-29T11:55:36.286Z,96556.41
2017-12-29T11:57:45.484Z,96589.28
2017-12-29T11:59:22.898Z,96562.97
2017-12-29T12:01:09.889Z,96551.72
2017-12-29T12:02:49.878Z,96528.34
2017-12-29T12:04:27.037Z,96543.89
2017-12-29T12:06:03.825Z,96570.25
2017-12-29T12:07:40.418Z,96602.75
2017-12-29T12:09:17.601Z,96603.59
2017-12-29T12:10:54.228Z,96588.05
2017-12-29T12:12:31.581Z,96562.07
2017-12-29T12:14:09.926Z,96510.17
2017-12-29T12:15:47.444Z,96517.11
2017-12-29T12:17:24.100Z,96542.66
2017-12-29T12:19:00.662Z,96522.30
2017-12-29T12:20:37.313Z,96541.80
2017-12-29T12:22:14.218Z,96562.11
2017-12-29T12:23:50.985Z,96519.23
2017-12-29T12:25:27.735Z,96471.14
2017-12-29T12:27:04.348Z,96470.71
2017-12-29T12:28:41.036Z,96517.16
2017-12-29T12:32:24.852Z,96435.30
2017-12-29T12:34:09.949Z,96443.91
2017-12-29T12:35:47.590Z,96478.55
2017-12-29T12:37:24.239Z,96447.34
2017-12-29T12:39:01.273Z,96461.77
2017-12-29T12:40:37.970Z,96370.81
2017-12-29T12:42:14.565Z,96360.48
2017-12-29T12:43:51.145Z,96387.27
2017-12-29T12:45:31.962Z,96408.97
2017-12-29T12:47:09.387Z,96328.50
2017-12-29T12:48:46.110Z,96252.02
2017-12-29T12:50:24.607Z,96284.37
2017-12-29T12:52:02.628Z,96277.05
2017-12-29T12:53:39.376Z,96297.41
2017-12-29T12:55:17.037Z,96309.88
2017-12-29T12:56:53.970Z,96275.82
2017-12-29T12:58:31.684Z,96196.90
2017-12-29T13:00:10.311Z,96151.58
2017-12-29T13:01:47.006Z,96159.31
2017-12-29T13:03:24.145Z,96069.41
2017-12-29T13:05:02.133Z,95960.77
2017-12-29T13:06:40.056Z,95939.21
2017-12-29T13:08:21.207Z,95789.30
2017-12-29T13:09:58.140Z,95705.24
2017-12-29T13:11:36.215Z,95648.91
2017-12-29T13:13:12.996Z,95674.33
2017-12-29T13:14:50.757Z,95777.60
2017-12-29T13:16:27.442Z,95824.98
2017-12-29T13:18:05.340Z,95734.98
2017-12-29T13:19:42.703Z,95637.23
2017-12-29T13:21:20.259Z,95549.48
2017-12-29T13:22:59.399Z,95637.23
2017-12-29T13:24:37.348Z,95740.44
2017-12-29T13:26:14.585Z,95635.08
2017-12-29T13:27:51.794Z,95379.67
2017-12-29T13:29:29.496Z,95311.47
2017-12-29T13:31:07.199Z,95209.81
2017-12-29T13:32:45.564Z,95175.45
2017-12-29T13:34:23.855Z,95240.59
2017-12-29T13:36:02.279Z,95365.61
2017-12-29T13:37:41.511Z,95492.84
2017-12-29T13:39:18.864Z,95597.69
2017-12-29T13:40:55.585Z,95678.52
2017-12-29T13:42:33.616Z,95778.41
2017-12-29T13:44:11.069Z,95809.30
2017-12-29T13:45:48.006Z,95781.29
2017-12-29T13:47:32.103Z,95802.42
2017-12-29T13:49:09.615Z,95801.11
2017-12-29T13:50:46.830Z,95673.34
2017-12-29T13:52:23.523Z,95453.54
2017-12-29T13:54:00.944Z,95163.74
2017-12-29T13:55:37.534Z,95042.80
2017-12-29T13:57:14.486Z,95019.32
2017-12-29T13:58:51.172Z,94948.56
2017-12-29T14:00:28.617Z,94852.64
2017-12-29T14:02:05.875Z,94830.08
2017-12-29T14:03:42.966Z,94776.97
2017-12-29T14:05:22.266Z,94718.59
2017-12-29T14:06:59.851Z,94690.08
2017-12-29T14:08:36.567Z,94684.10
2017-12-29T14:10:14.088Z,94642.14
2017-12-29T14:11:50.857Z,94620.30
2017-12-29T14:13:27.586Z,94609.11
2017-12-29T14:15:06.432Z,94611.72
2017-12-29T14:16:44.289Z,94568.70
2017-12-29T14:20:10.557Z,94525.43
2017-12-29T14:21:47.636Z,94495.95
2017-12-29T14:23:26.113Z,94489.63
2017-12-29T14:25:09.934Z,94463.16
2017-12-29T14:26:50.413Z,94456.80
2017-12-29T14:28:30.095Z,94451.58
2017-12-29T14:30:08.537Z,94432.80
2017-12-29T14:31:46.242Z,94458.39
2017-12-29T14:33:34.836Z,94442.06
2017-12-29T14:35:11.943Z,94461.48
2017-12-29T14:36:49.934Z,94468.17
2017-12-29T14:38:28.411Z,94442.12
2017-12-29T14:40:05.272Z,94435.22
2017-12-29T14:41:44.279Z,94441.75
2017-12-29T14:43:21.380Z,94421.20
2017-12-29T14:44:58.668Z,94413.93
2017-12-29T14:46:35.629Z,94421.61
2017-12-29T14:48:18.176Z,94430.23
2017-12-29T14:49:54.947Z,94431.54
2017-12-29T14:51:32.464Z,94427.20
2017-12-29T14:53:09.907Z,94432.71
2017-12-29T14:54:47.729Z,94463.47
2017-12-29T14:56:26.326Z,94532.33
2017-12-29T14:58:03.307Z,94587.45
2017-12-29T14:59:40.024Z,94613.81
2017-12-29T15:01:17.180Z,94633.92
2017-12-29T15:02:53.967Z,94647.59
2017-12-29T15:04:30.763Z,94595.38
2017-12-29T15:06:07.634Z,94573.64
2017-12-29T15:07:44.620Z,94613.03
2017-12-29T15:09:21.464Z,94742.97
2017-12-29T15:10:58.182Z,94796.80
2017-12-29T15:12:36.621Z,94989.09
2017-12-29T15:14:14.207Z,95046.50
2017-12-29T15:15:52.856Z,95118.47
2017-12-29T15:17:31.479Z,95073.55
2017-12-29T15:19:10.559Z,95144.26
2017-12-29T15:20:47.389Z,95217.55
2017-12-29T15:22:24.041Z,95182.89
2017-12-29T15:24:00.766Z,95109.06
2017-12-29T15:25:38.109Z,95193.28
2017-12-29T15:27:15.129Z,95296.20
2017-12-29T15:28:51.832Z,95312.17
2017-12-29T15:30:30.464Z,95199.27
2017-12-29T15:32:07.577Z,95183.73
2017-12-29T15:33:44.874Z,95168.80
2017-12-29T15:35:21.945Z,95255.39
2017-12-29T15:36:58.843Z,95368.47
2017-12-29T15:38:35.939Z,95348.17
2017-12-29T15:40:12.658Z,95242.52
2017-12-29T15:41:49.504Z,95201.81
2017-12-29T15:43:26.249Z,95136.12
2017-12-29T15:45:03.383Z,95107.84
2017-12-29T15:46:40.414Z,95146.09
2017-12-29T15:48:19.849Z,95210.84
2017-12-29T15:49:57.379Z,95195.76
2017-12-29T15:51:35.681Z,95084.77
2017-12-29T15:53:12.665Z,94886.38
2017-12-29T15:54:49.472Z,94784.91
2017-12-29T15:56:26.205Z,94705.33
2017-12-29T15:58:03.272Z,94639.89
2017-12-29T15:59:40.844Z,94626.69
2017-12-29T16:01:17.949Z,94598.56
2017-12-29T16:02:54.789Z,94604.01
2017-12-29T16:04:31.866Z,94606.63
2017-12-29T16:06:08.649Z,94577.14
2017-12-29T16:07:46.843Z,94576.73
2017-12-29T16:09:23.867Z,94601.39
2017-12-29T16:11:01.464Z,94609.58
2017-12-29T16:12:38.483Z,94610.88
2017-12-29T16:14:15.265Z,94621.55
2017-12-29T16:15:52.105Z,94653.10
2017-12-29T16:17:29.833Z,94690.44
2017-12-29T16:19:07.345Z,94680.97
2017-12-29T16:20:44.169Z,94693.38
2017-12-29T16:24:03.027Z,94597.94
2017-12-29T16:25:39.924Z,94635.97
2017-12-29T16:27:16.984Z,94760.43
2017-12-29T16:28:53.738Z,94831.94
2017-12-29T16:30:30.752Z,94800.36
2017-12-29T16:32:08.155Z,94704.08
2017-12-29T16:33:45.293Z,94676.67
2017-12-29T16:35:21.876Z,94659.13
2017-12-29T16:36:59.874Z,94678.25
2017-12-29T16:38:36.708Z,94729.33
2017-12-29T16:40:13.687Z,94812.74
2017-12-29T16:41:50.293Z,94778.45
2017-12-29T16:43:27.507Z,94767.70
2017-12-29T16:45:04.325Z,94771.59
2017-12-29T16:46:41.097Z,94769.39
2017-12-29T16:48:18.598Z,94778.92
2017-12-29T16:49:55.613Z,94756.22
2017-12-29T16:51:34.613Z,94707.95
2017-12-29T16:53:11.356Z,94685.62
2017-12-29T16:54:50.036Z,94696.05
2017-12-29T16:56:29.159Z,94714.39
2017-12-29T16:58:06.491Z,94749.04
2017-12-29T16:59:43.643Z,94751.55
2017-12-29T17:01:21.108Z,94783.50
2017-12-29T17:03:06.148Z,94804.52
2017-12-29T17:04:42.788Z,94942.02
2017-12-29T17:06:21.089Z,94942.44
2017-12-29T17:07:58.035Z,94896.20
2017-12-29T17:09:35.359Z,94938.13
2017-12-29T17:11:12.010Z,94951.88
2017-12-29T17:12:49.489Z,94887.69
2017-12-29T17:14:26.658Z,94834.56
2017-12-29T17:16:03.630Z,94827.28
2017-12-29T17:17:40.355Z,94894.95
2017-12-29T17:19:18.149Z,94901.34
2017-12-29T17:20:55.645Z,94915.17
2017-12-29T17:22:33.599Z,94893.72
2017-12-29T17:24:10.497Z,94895.73
2017-12-29T17:25:48.668Z,94853.11
2017-12-29T17:27:25.303Z,94800.41
2017-12-29T17:29:03.654Z,94816.98
2017-12-29T17:32:09.634Z,94824.66
2017-12-29T17:33:46.671Z,94831.47
2017-12-29T17:35:24.579Z,94835.82
2017-12-29T17:37:01.304Z,94846.90
2017-12-29T17:38:37.973Z,94876.66
2017-12-29T17:40:17.369Z,94876.16
2017-12-29T17:41:54.225Z,94897.17
2017-12-29T17:43:31.691Z,94969.09
2017-12-29T17:45:08.365Z,95086.08
2017-12-29T17:46:45.170Z,95150.44
2017-12-29T17:48:34.349Z,95105.83
2017-12-29T17:50:11.130Z,95124.23
2017-12-29T17:51:48.629Z,95150.44
2017-12-29T17:53:28.899Z,95219.45
2017-12-29T17:55:07.531Z,95175.77
2017-12-29T17:56:45.297Z,95149.97
2017-12-29T17:58:22.986Z,95141.12
2017-12-29T18:00:03.843Z,95274.08
2017-12-29T18:01:43.639Z,95447.67
2017-12-29T18:03:21.918Z,95635.92
2017-12-29T18:05:00.400Z,95632.02
2017-12-29T18:06:37.096Z,95671.18
2017-12-29T18:08:39.728Z,95615.25
2017-12-29T18:10:16.578Z,95582.67
2017-12-29T18:11:54.843Z,95586.98
2017-12-29T18:13:31.921Z,95691.90
2017-12-29T18:15:21.494Z,95846.56
2017-12-29T18:16:58.768Z,95929.26
2017-12-29T18:18:35.525Z,95953.47
2017-12-29T18:20:12.780Z,95979.30
2017-12-29T18:21:51.208Z,95978.84
2017-12-29T18:23:28.091Z,95850.80
2017-12-29T18:25:04.623Z,95731.13
2017-12-29T18:26:42.397Z,95692.83
2017-12-29T18:28:19.961Z,95787.98
2017-12-29T18:29:56.873Z,95931.89
2017-12-29T18:31:34.330Z,96044.91
2017-12-29T18:33:18.456Z,96095.02
2017-12-29T18:34:56.010Z,96128.73
2017-12-29T18:36:33.531Z,96112.16
2017-12-29T18:38:10.236Z,96134.80
2017-12-29T18:39:47.537Z,96097.60
2017-12-29T18:41:24.280Z,96126.05
2017-12-29T18:43:01.452Z,96079.00
2017-12-29T18:44:38.352Z,95909.92
2017-12-29T18:46:15.332Z,95831.52
2017-12-29T18:47:52.023Z,95878.49
2017-12-29T18:49:30.298Z,95943.16
2017-12-29T18:51:07.923Z,96024.30
2017-12-29T18:52:46.073Z,95996.23
2017-12-29T18:54:23.663Z,95662.39
2017-12-29T18:56:00.860Z,95557.96
2017-12-29T18:57:37.590Z,95693.39
2017-12-29T18:59:14.628Z,95802.23
2017-12-29T19:00:51.833Z,95683.95
2017-12-29T19:02:30.884Z,95479.66
2017-12-29T19:04:10.637Z,95433.64
2017-12-29T19:05:48.478Z,95383.38
2017-12-29T19:07:26.755Z,95378.59
2017-12-29T19:09:03.713Z,95347.28
2017-12-29T19:10:40.317Z,95322.44
2017-12-29T19:12:17.566Z,95312.09
2017-12-29T19:13:54.772Z,95321.97